createdAt,value
2018-09-10T00:00:52.235Z,5.47
2018-09-10T00:03:21.197Z,3.60
2018-09-10T00:05:50.150Z,5.33
2018-09-10T00:08:19.092Z,4.40
2018-09-10T00:10:48.551Z,5.20
2018-09-10T00:13:19.724Z,4.60
2018-09-10T00:15:48.644Z,3.90
2018-09-10T00:18:17.732Z,4.47
2018-09-10T00:20:46.628Z,4.50
2018-09-10T00:23:15.652Z,6.17
2018-09-10T00:25:46.747Z,4.80
2018-09-10T00:28:15.858Z,4.80
2018-09-10T00:30:44.900Z,3.67
2018-09-10T00:33:13.778Z,4.30
2018-09-10T00:35:42.713Z,4.57
2018-09-10T00:38:12.392Z,5.27
2018-09-10T00:40:41.428Z,4.70
2018-09-10T00:43:11.322Z,4.47
2018-09-10T00:45:40.360Z,4.60
2018-09-10T00:48:09.607Z,4.10
2018-09-10T00:50:40.678Z,4.80
2018-09-10T00:53:09.707Z,2.97
2018-09-10T00:55:38.804Z,3.87
2018-09-10T00:58:07.864Z,4.10
2018-09-10T01:00:36.796Z,4.30
2018-09-10T01:03:05.619Z,4.40
2018-09-10T01:05:34.561Z,3.63
2018-09-10T01:08:03.552Z,4.50
2018-09-10T01:10:32.388Z,4.60
2018-09-10T01:13:01.264Z,3.80
2018-09-10T01:15:30.044Z,4.10
2018-09-10T01:17:59.127Z,3.77
2018-09-10T01:20:28.002Z,3.47
2018-09-10T01:22:56.832Z,3.67
2018-09-10T01:25:25.824Z,4.47
2018-09-10T01:27:54.830Z,5.40
2018-09-10T01:30:23.662Z,3.83
2018-09-10T01:32:52.639Z,3.40
2018-09-10T01:35:21.500Z,3.37
2018-09-10T01:37:52.415Z,3.10
2018-09-10T01:40:21.272Z,3.80
2018-09-10T01:42:50.263Z,3.87
2018-09-10T01:45:19.119Z,4.70
2018-09-10T01:47:48.010Z,4.33
2018-09-10T01:50:16.820Z,3.43
2018-09-10T01:52:45.749Z,3.20
2018-09-10T01:55:14.584Z,3.97
2018-09-10T01:57:43.521Z,4.30
2018-09-10T02:00:12.587Z,3.53
2018-09-10T02:02:41.504Z,3.50
2018-09-10T02:05:10.474Z,3.50
2018-09-10T02:07:39.359Z,4.30
2018-09-10T02:10:08.344Z,4.43
2018-09-10T02:12:37.202Z,4.70
2018-09-10T02:15:06.173Z,4.23
2018-09-10T02:17:35.073Z,4.30
2018-09-10T02:20:04.062Z,4.07
2018-09-10T02:22:32.993Z,4.57
2018-09-10T02:25:01.978Z,4.77
2018-09-10T02:27:30.816Z,4.33
2018-09-10T02:29:59.682Z,3.67
2018-09-10T02:32:28.596Z,4.23
2018-09-10T02:34:57.584Z,6.40
2018-09-10T02:37:26.396Z,5.13
2018-09-10T02:39:55.391Z,4.50
2018-09-10T02:42:24.233Z,4.13
2018-09-10T02:44:53.217Z,4.67
2018-09-10T02:47:22.966Z,4.87
2018-09-10T02:49:51.892Z,5.33
2018-09-10T02:52:20.840Z,4.90
2018-09-10T02:54:49.790Z,4.63
2018-09-10T02:57:18.712Z,5.50
2018-09-10T02:59:47.530Z,4.47
2018-09-10T03:02:16.353Z,5.03
2018-09-10T03:04:46.037Z,5.73
2018-09-10T03:07:15.960Z,4.10
2018-09-10T03:09:45.005Z,5.17
2018-09-10T03:12:13.968Z,4.53
2018-09-10T03:14:42.901Z,5.20
2018-09-10T03:17:11.840Z,6.37
2018-09-10T03:19:40.697Z,6.03
2018-09-10T03:22:09.553Z,6.17
2018-09-10T03:24:38.480Z,5.80
2018-09-10T03:27:07.372Z,5.00
2018-09-10T03:29:36.247Z,6.83
2018-09-10T03:32:05.025Z,4.07
2018-09-10T03:34:33.870Z,5.63
2018-09-10T03:37:02.768Z,5.93
2018-09-10T03:39:31.672Z,5.47
2018-09-10T03:42:00.485Z,7.10
2018-09-10T03:44:29.327Z,6.57
2018-09-10T03:46:58.293Z,6.07
2018-09-10T03:49:27.144Z,5.60
2018-09-10T03:51:56.105Z,4.73
2018-09-10T03:54:25.136Z,5.47
2018-09-10T03:56:54.005Z,5.60
2018-09-10T03:59:22.966Z,6.00
2018-09-10T04:01:51.975Z,5.60
2018-09-10T04:04:20.922Z,6.50
2018-09-10T04:06:49.765Z,5.80
2018-09-10T04:09:18.677Z,6.43
2018-09-10T04:11:47.617Z,4.77
2018-09-10T04:14:16.479Z,5.40
2018-09-10T04:16:45.320Z,6.13
2018-09-10T04:19:14.350Z,5.73
2018-09-10T04:21:43.198Z,6.07
2018-09-10T04:24:12.204Z,5.60
2018-09-10T04:26:41.251Z,7.20
2018-09-10T04:29:10.100Z,5.93
2018-09-10T04:31:38.985Z,8.00
2018-09-10T04:34:07.887Z,5.93
2018-09-10T04:36:36.891Z,6.27
2018-09-10T04:39:07.681Z,6.27
2018-09-10T04:41:40.775Z,6.07
2018-09-10T04:44:09.690Z,6.57
2018-09-10T04:46:39.704Z,6.57
2018-09-10T04:49:09.732Z,5.53
2018-09-10T04:51:38.777Z,6.63
2018-09-10T04:54:07.649Z,6.60
2018-09-10T04:56:36.571Z,7.00
2018-09-10T04:59:05.491Z,8.00
2018-09-10T05:01:34.445Z,6.87
2018-09-10T05:04:03.449Z,6.07
2018-09-10T05:06:32.314Z,7.83
2018-09-10T05:09:01.249Z,6.80
2018-09-10T05:11:30.139Z,6.13
2018-09-10T05:13:59.132Z,7.20
2018-09-10T05:16:28.084Z,6.37
2018-09-10T05:18:57.096Z,6.50
2018-09-10T05:21:26.111Z,6.13
2018-09-10T05:23:55.057Z,8.00
2018-09-10T05:26:24.071Z,7.17
2018-09-10T05:28:53.124Z,7.70
2018-09-10T05:31:22.199Z,8.87
2018-09-10T05:33:51.068Z,8.43
2018-09-10T05:36:20.110Z,6.90
2018-09-10T05:38:49.078Z,6.87
2018-09-10T05:41:17.998Z,7.17
2018-09-10T05:43:46.934Z,7.10
2018-09-10T05:46:15.904Z,7.97
2018-09-10T05:48:44.931Z,7.77
2018-09-10T05:51:13.811Z,7.60
2018-09-10T05:53:42.752Z,7.20
2018-09-10T05:56:11.857Z,7.00
2018-09-10T05:58:40.751Z,7.33
2018-09-10T06:01:09.767Z,8.63
2018-09-10T06:03:38.800Z,7.53
2018-09-10T06:06:07.756Z,10.40
2018-09-10T06:08:36.874Z,7.43
2018-09-10T06:11:05.836Z,7.40
2018-09-10T06:13:34.774Z,7.50
2018-09-10T06:16:03.827Z,7.40
2018-09-10T06:18:32.824Z,9.13
2018-09-10T06:21:01.878Z,8.70
2018-09-10T06:23:30.797Z,8.13
2018-09-10T06:25:59.705Z,7.53
2018-09-10T06:28:28.647Z,8.57
2018-09-10T06:30:57.528Z,7.87
2018-09-10T06:33:26.505Z,7.70
2018-09-10T06:35:55.546Z,8.37
2018-09-10T06:38:24.493Z,8.30
2018-09-10T06:40:53.500Z,6.87
2018-09-10T06:43:22.537Z,8.63
2018-09-10T06:45:51.801Z,7.97
2018-09-10T06:48:28.510Z,9.10
2018-09-10T06:50:57.664Z,8.63
2018-09-10T06:53:26.677Z,8.40
2018-09-10T06:55:55.605Z,8.97
2018-09-10T06:58:24.672Z,8.37
2018-09-10T07:00:53.661Z,8.63
2018-09-10T07:03:22.659Z,9.13
2018-09-10T07:05:51.711Z,8.13
2018-09-10T07:08:28.311Z,9.10
2018-09-10T07:10:57.204Z,8.47
2018-09-10T07:13:26.659Z,8.97
2018-09-10T07:15:55.842Z,9.57
2018-09-10T07:18:25.753Z,8.93
2018-09-10T07:20:54.752Z,8.60
2018-09-10T07:23:23.768Z,8.83
2018-09-10T07:25:52.732Z,8.60
2018-09-10T07:28:22.813Z,9.23
2018-09-10T07:30:51.847Z,9.63
2018-09-10T07:33:20.839Z,9.30
2018-09-10T07:35:49.883Z,9.10
2018-09-10T07:38:18.913Z,9.90
2018-09-10T07:40:47.973Z,10.83
2018-09-10T07:43:17.261Z,12.07
2018-09-10T07:45:46.285Z,9.47
2018-09-10T07:48:15.207Z,11.00
2018-09-10T07:50:44.119Z,10.50
2018-09-10T07:53:13.255Z,9.90
2018-09-10T07:55:42.204Z,10.37
2018-09-10T07:58:11.253Z,10.27
2018-09-10T08:00:40.304Z,10.03
2018-09-10T08:03:09.329Z,9.13
2018-09-10T08:05:38.274Z,9.87
2018-09-10T08:08:08.313Z,9.50
2018-09-10T08:10:37.315Z,11.27
2018-09-10T08:13:06.277Z,9.00
2018-09-10T08:15:35.215Z,9.80
2018-09-10T08:18:04.101Z,11.43
2018-09-10T08:20:33.053Z,10.73
2018-09-10T08:23:02.002Z,11.70
2018-09-10T08:25:31.085Z,8.87
2018-09-10T08:28:00.129Z,10.97
2018-09-10T08:30:29.181Z,8.37
2018-09-10T08:32:58.116Z,11.30
2018-09-10T08:35:27.141Z,8.70
2018-09-10T08:37:56.113Z,10.10
2018-09-10T08:40:24.952Z,9.97
2018-09-10T08:42:53.872Z,9.00
2018-09-10T08:45:22.837Z,10.13
2018-09-10T08:47:51.792Z,8.37
2018-09-10T08:50:20.847Z,12.67
2018-09-10T08:52:49.773Z,9.93
2018-09-10T08:55:18.907Z,9.93
2018-09-10T08:57:47.695Z,9.10
2018-09-10T09:00:16.733Z,11.47
2018-09-10T09:02:45.758Z,12.17
2018-09-10T09:05:14.669Z,9.63
2018-09-10T09:07:43.579Z,10.30
2018-09-10T09:10:12.487Z,10.33
2018-09-10T09:12:41.520Z,14.20
2018-09-10T09:15:10.508Z,11.40
2018-09-10T09:17:39.471Z,12.17
2018-09-10T09:20:08.577Z,10.17
2018-09-10T09:22:37.563Z,11.17
2018-09-10T09:25:06.489Z,10.70
2018-09-10T09:27:35.566Z,11.73
2018-09-10T09:30:04.689Z,9.03
2018-09-10T09:32:33.752Z,10.10
2018-09-10T09:35:02.670Z,9.60
2018-09-10T09:37:36.852Z,10.67
2018-09-10T09:40:11.264Z,8.80
2018-09-10T09:42:45.307Z,8.10
2018-09-10T09:45:19.449Z,10.10
2018-09-10T09:47:48.537Z,9.87
2018-09-10T09:50:17.623Z,9.10
2018-09-10T09:52:46.724Z,8.90
2018-09-10T09:55:15.673Z,9.20
2018-09-10T09:57:44.705Z,7.80
2018-09-10T10:00:18.792Z,8.80
2018-09-10T10:02:52.994Z,8.27
2018-09-10T10:05:22.041Z,8.00
2018-09-10T10:07:51.140Z,8.80
2018-09-10T10:10:20.518Z,7.37
2018-09-10T10:12:49.489Z,8.70
2018-09-10T10:15:19.091Z,8.87
2018-09-10T10:17:48.081Z,9.50
2018-09-10T10:20:21.481Z,8.73
2018-09-10T10:22:50.474Z,9.50
2018-09-10T10:25:19.469Z,9.20
2018-09-10T10:27:48.331Z,8.47
2018-09-10T10:30:17.452Z,7.97
2018-09-10T10:32:46.549Z,7.90
2018-09-10T10:35:15.571Z,8.40
2018-09-10T10:37:44.555Z,8.90
2018-09-10T10:40:31.707Z,8.83
2018-09-10T10:43:00.672Z,8.33
2018-09-10T10:45:29.673Z,8.67
2018-09-10T10:47:58.678Z,6.90
2018-09-10T10:50:28.723Z,7.70
2018-09-10T10:52:57.744Z,8.30
2018-09-10T10:55:26.597Z,7.77
2018-09-10T10:57:55.596Z,8.33
2018-09-10T11:00:24.712Z,9.27
2018-09-10T11:02:53.694Z,8.10
2018-09-10T11:05:22.740Z,8.37
2018-09-10T11:07:51.622Z,8.37
2018-09-10T11:10:20.664Z,8.40
2018-09-10T11:12:49.551Z,7.40
2018-09-10T11:15:18.713Z,9.00
2018-09-10T11:17:47.683Z,7.20
2018-09-10T11:20:27.365Z,9.37
2018-09-10T11:22:56.269Z,8.60
2018-09-10T11:25:25.325Z,7.37
2018-09-10T11:27:54.264Z,9.00
2018-09-10T11:30:36.816Z,8.70
2018-09-10T11:33:05.936Z,10.13
2018-09-10T11:35:35.072Z,7.27
2018-09-10T11:38:04.068Z,6.73
2018-09-10T11:40:32.931Z,7.50
2018-09-10T11:43:01.837Z,7.70
2018-09-10T11:45:30.793Z,9.47
2018-09-10T11:47:59.777Z,7.10
2018-09-10T11:50:28.915Z,9.47
2018-09-10T11:52:57.922Z,10.23
2018-09-10T11:55:27.009Z,10.07
2018-09-10T11:57:55.937Z,9.80
2018-09-10T12:00:25.598Z,9.30
2018-09-10T12:02:55.096Z,8.70
2018-09-10T12:05:24.607Z,10.77
2018-09-10T12:07:54.155Z,9.20
2018-09-10T12:10:23.819Z,9.93
2018-09-10T12:12:53.510Z,10.17
2018-09-10T12:15:22.518Z,8.20
2018-09-10T12:17:51.445Z,9.60
2018-09-10T12:20:20.537Z,9.77
2018-09-10T12:22:49.590Z,7.87
2018-09-10T12:25:18.600Z,8.60
2018-09-10T12:27:47.485Z,9.00
2018-09-10T12:30:16.479Z,8.30
2018-09-10T12:32:45.362Z,6.87
2018-09-10T12:35:14.262Z,7.50
2018-09-10T12:37:43.159Z,7.20
2018-09-10T12:40:12.194Z,6.37
2018-09-10T12:42:41.210Z,6.60
2018-09-10T12:45:10.269Z,6.43
2018-09-10T12:47:39.250Z,7.23
2018-09-10T12:50:08.364Z,6.10
2018-09-10T12:52:37.393Z,7.33
2018-09-10T12:55:06.501Z,7.20
2018-09-10T12:57:35.572Z,4.47
2018-09-10T13:00:04.697Z,5.53
2018-09-10T13:02:33.740Z,3.10
2018-09-10T13:05:02.665Z,4.13
2018-09-10T13:07:31.517Z,3.47
2018-09-10T13:10:01.675Z,3.77
2018-09-10T13:12:30.575Z,3.03
2018-09-10T13:14:59.597Z,3.17
2018-09-10T13:17:28.538Z,3.27
2018-09-10T13:19:57.733Z,3.57
2018-09-10T13:22:26.709Z,2.87
2018-09-10T13:24:55.707Z,2.77
2018-09-10T13:27:24.779Z,3.30
2018-09-10T13:29:53.721Z,2.27
2018-09-10T13:32:22.712Z,2.60
2018-09-10T13:34:51.634Z,3.30
2018-09-10T13:37:20.594Z,3.10
2018-09-10T13:39:49.624Z,3.07
2018-09-10T13:42:18.640Z,2.23
2018-09-10T13:44:47.657Z,2.50
2018-09-10T13:47:16.649Z,2.53
2018-09-10T13:49:45.760Z,3.33
2018-09-10T13:52:14.751Z,3.40
2018-09-10T13:54:43.727Z,2.77
2018-09-10T13:57:12.752Z,3.53
2018-09-10T13:59:41.903Z,3.77
2018-09-10T14:02:10.839Z,2.50
2018-09-10T14:04:39.838Z,3.80
2018-09-10T14:07:08.800Z,2.30
2018-09-10T14:09:37.812Z,3.70
2018-09-10T14:12:06.752Z,2.77
2018-09-10T14:14:35.744Z,2.77
2018-09-10T14:17:04.685Z,3.10
2018-09-10T14:19:35.952Z,2.13
2018-09-10T14:22:04.877Z,3.13
2018-09-10T14:24:33.825Z,2.53
2018-09-10T14:27:02.988Z,3.20
2018-09-10T14:29:31.971Z,2.90
2018-09-10T14:32:00.965Z,2.47
2018-09-10T14:34:29.893Z,2.97
2018-09-10T14:36:58.956Z,2.90
2018-09-10T14:39:27.985Z,3.20
2018-09-10T14:41:56.938Z,2.93
2018-09-10T14:44:25.945Z,3.10
2018-09-10T14:46:54.985Z,3.27
2018-09-10T14:49:24.089Z,2.77
2018-09-10T14:51:53.000Z,3.90
2018-09-10T14:54:22.251Z,2.90
2018-09-10T14:56:51.260Z,2.80
2018-09-10T14:59:20.312Z,3.70
2018-09-10T15:01:49.127Z,3.80
2018-09-10T15:04:18.164Z,3.27
2018-09-10T15:06:47.044Z,3.13
2018-09-10T15:09:15.913Z,3.70
2018-09-10T15:11:44.940Z,2.77
2018-09-10T15:14:13.824Z,2.50
2018-09-10T15:16:42.761Z,4.27
2018-09-10T15:19:11.864Z,2.87
2018-09-10T15:21:40.893Z,3.33
2018-09-10T15:24:09.884Z,2.73
2018-09-10T15:26:38.903Z,2.47
2018-09-10T15:29:06.629Z,3.10
2018-09-10T15:31:37.813Z,2.60
2018-09-10T15:34:06.805Z,3.70
2018-09-10T15:36:35.830Z,4.20
2018-09-10T15:39:06.078Z,3.37
2018-09-10T15:41:34.982Z,3.23
2018-09-10T15:44:03.897Z,3.00
2018-09-10T15:46:32.947Z,3.57
2018-09-10T15:49:02.988Z,2.33
2018-09-10T15:51:32.043Z,3.10
2018-09-10T15:54:00.934Z,3.30
2018-09-10T15:56:29.906Z,3.47
2018-09-10T15:58:58.875Z,3.20
2018-09-10T16:01:27.911Z,2.70
2018-09-10T16:03:57.043Z,3.00
2018-09-10T16:06:25.977Z,2.30
2018-09-10T16:08:54.951Z,3.00
2018-09-10T16:11:24.052Z,4.17
2018-09-10T16:13:53.013Z,3.50
2018-09-10T16:16:22.059Z,2.67
2018-09-10T16:18:51.042Z,3.10
2018-09-10T16:21:20.117Z,3.43
2018-09-10T16:23:48.953Z,3.60
2018-09-10T16:26:17.864Z,2.83
2018-09-10T16:28:46.750Z,2.50
2018-09-10T16:31:15.643Z,3.93
2018-09-10T16:33:44.609Z,2.90
2018-09-10T16:36:13.609Z,2.90
2018-09-10T16:38:42.451Z,2.30
2018-09-10T16:41:11.438Z,2.40
2018-09-10T16:43:40.289Z,3.80
2018-09-10T16:46:09.257Z,3.27
2018-09-10T16:48:38.302Z,2.63
2018-09-10T16:51:07.292Z,3.13
2018-09-10T16:53:36.270Z,2.90
2018-09-10T16:56:05.276Z,2.83
2018-09-10T16:58:34.314Z,3.10
2018-09-10T17:01:04.329Z,2.60
2018-09-10T17:03:33.250Z,3.00
2018-09-10T17:06:02.181Z,2.83
2018-09-10T17:08:31.038Z,3.00
2018-09-10T17:11:00.063Z,3.03
2018-09-10T17:13:28.939Z,2.87
2018-09-10T17:15:57.825Z,3.07
2018-09-10T17:18:26.911Z,2.90
2018-09-10T17:20:55.824Z,3.30
2018-09-10T17:23:24.783Z,1.90
2018-09-10T17:25:55.059Z,2.90
2018-09-10T17:28:24.177Z,2.80
2018-09-10T17:30:53.753Z,2.90
2018-09-10T17:33:22.623Z,3.10
2018-09-10T17:35:51.484Z,2.60
2018-09-10T17:38:20.484Z,3.20
2018-09-10T17:40:49.484Z,3.10
2018-09-10T17:43:18.327Z,3.10
2018-09-10T17:45:47.190Z,2.23
2018-09-10T17:48:16.172Z,4.00
2018-09-10T17:50:45.235Z,3.00
2018-09-10T17:53:14.145Z,3.20
2018-09-10T17:55:42.992Z,3.07
2018-09-10T17:58:11.989Z,2.87
2018-09-10T18:00:42.138Z,2.77
2018-09-10T18:03:12.467Z,3.77
2018-09-10T18:05:41.889Z,3.63
2018-09-10T18:08:10.771Z,3.10
2018-09-10T18:10:39.687Z,3.10
2018-09-10T18:13:08.640Z,2.73
2018-09-10T18:15:37.547Z,3.40
2018-09-10T18:18:06.497Z,3.30
2018-09-10T18:20:35.537Z,2.83
2018-09-10T18:23:04.332Z,3.27
2018-09-10T18:25:35.812Z,3.13
2018-09-10T18:28:04.774Z,3.03
2018-09-10T18:30:33.733Z,3.00
2018-09-10T18:33:02.750Z,3.50
2018-09-10T18:35:31.736Z,3.50
2018-09-10T18:38:00.697Z,3.30
2018-09-10T18:40:29.585Z,3.80
2018-09-10T18:42:58.649Z,4.37
2018-09-10T18:45:27.501Z,3.70
2018-09-10T18:47:56.517Z,3.00
2018-09-10T18:50:25.412Z,3.90
2018-09-10T18:52:55.284Z,2.40
2018-09-10T18:55:24.197Z,3.60
2018-09-10T18:57:53.605Z,2.50
2018-09-10T19:00:22.795Z,4.10
2018-09-10T19:02:51.743Z,3.80
2018-09-10T19:05:21.030Z,3.57
2018-09-10T19:07:50.360Z,3.23
2018-09-10T19:10:19.669Z,4.50
2018-09-10T19:12:49.010Z,3.63
2018-09-10T19:15:18.399Z,3.90
2018-09-10T19:17:47.806Z,2.97
2018-09-10T19:20:17.064Z,3.83
2018-09-10T19:22:49.746Z,4.37
2018-09-10T19:25:19.163Z,4.13
2018-09-10T19:27:48.089Z,3.53
2018-09-10T19:30:17.117Z,3.20
2018-09-10T19:32:46.144Z,3.73
2018-09-10T19:35:15.089Z,3.20
2018-09-10T19:37:44.191Z,3.70
2018-09-10T19:40:13.240Z,3.27
2018-09-10T19:42:42.327Z,3.43
2018-09-10T19:45:11.192Z,4.20
2018-09-10T19:47:40.211Z,4.40
2018-09-10T19:50:09.184Z,3.73
2018-09-10T19:52:38.065Z,3.83
2018-09-10T19:55:07.033Z,3.20
2018-09-10T19:57:35.945Z,3.77
2018-09-10T20:00:04.826Z,5.20
2018-09-10T20:02:33.831Z,4.40
2018-09-10T20:05:02.812Z,4.83
2018-09-10T20:07:31.756Z,5.00
2018-09-10T20:10:00.643Z,3.50
2018-09-10T20:12:29.581Z,4.20
2018-09-10T20:14:58.452Z,5.27
2018-09-10T20:17:27.287Z,5.50
2018-09-10T20:19:56.083Z,4.30
2018-09-10T20:22:25.078Z,4.90
2018-09-10T20:24:54.056Z,4.40
2018-09-10T20:27:22.977Z,4.60
2018-09-10T20:29:51.907Z,4.03
2018-09-10T20:32:21.016Z,4.10
2018-09-10T20:34:50.012Z,3.60
2018-09-10T20:37:19.024Z,4.00
2018-09-10T20:39:47.928Z,4.30
2018-09-10T20:42:16.821Z,4.23
2018-09-10T20:44:45.849Z,4.10
2018-09-10T20:47:14.831Z,4.27
2018-09-10T20:49:43.714Z,4.73
2018-09-10T20:52:12.839Z,4.53
2018-09-10T20:54:41.811Z,6.10
2018-09-10T20:57:10.769Z,6.90
2018-09-10T20:59:39.751Z,5.60
2018-09-10T21:02:08.594Z,5.33
2018-09-10T21:04:37.504Z,6.53
2018-09-10T21:07:06.441Z,6.73
2018-09-10T21:09:35.372Z,5.97
2018-09-10T21:12:04.456Z,6.83
2018-09-10T21:14:33.476Z,6.13
2018-09-10T21:17:02.593Z,7.60
2018-09-10T21:19:31.499Z,6.23
2018-09-10T21:22:00.489Z,5.93
2018-09-10T21:24:29.648Z,5.87
2018-09-10T21:26:58.611Z,6.90
2018-09-10T21:29:27.631Z,6.40
2018-09-10T21:31:56.465Z,7.40
2018-09-10T21:34:25.431Z,7.10
2018-09-10T21:36:54.295Z,5.33
2018-09-10T21:39:23.227Z,7.00
2018-09-10T21:41:52.163Z,5.43
2018-09-10T21:44:21.137Z,5.53
2018-09-10T21:46:50.245Z,7.27
2018-09-10T21:49:19.074Z,6.57
2018-09-10T21:51:47.997Z,7.00
2018-09-10T21:54:16.911Z,6.70
2018-09-10T21:56:45.812Z,8.40
2018-09-10T21:59:14.721Z,8.63
2018-09-10T22:01:43.516Z,7.27
2018-09-10T22:04:12.599Z,8.10
2018-09-10T22:06:41.522Z,7.97
2018-09-10T22:09:10.462Z,7.00
2018-09-10T22:11:46.277Z,7.80
2018-09-10T22:14:15.293Z,6.83
2018-09-10T22:16:44.152Z,5.50
2018-09-10T22:19:13.208Z,6.47
2018-09-10T22:21:42.548Z,8.13
2018-09-10T22:24:11.437Z,8.20
2018-09-10T22:26:40.399Z,7.87
2018-09-10T22:29:09.265Z,9.87
2018-09-10T22:31:38.185Z,7.17
2018-09-10T22:34:07.133Z,8.63
2018-09-10T22:36:36.107Z,7.77
2018-09-10T22:39:07.464Z,8.53
2018-09-10T22:41:36.338Z,8.10
2018-09-10T22:44:06.228Z,8.30
2018-09-10T22:46:35.815Z,8.07
2018-09-10T22:49:05.349Z,7.90
2018-09-10T22:51:34.285Z,8.63
2018-09-10T22:54:03.281Z,9.77
2018-09-10T22:56:32.213Z,8.17
2018-09-10T22:59:01.276Z,9.57
2018-09-10T23:01:30.163Z,7.57
2018-09-10T23:03:59.108Z,8.43
2018-09-10T23:06:27.901Z,7.57
2018-09-10T23:08:56.841Z,8.80
2018-09-10T23:11:25.655Z,9.80
2018-09-10T23:13:54.528Z,8.03
2018-09-10T23:16:23.566Z,9.47
2018-09-10T23:18:52.492Z,10.13
2018-09-10T23:21:21.488Z,9.20
2018-09-10T23:23:50.511Z,8.87
2018-09-10T23:26:19.316Z,7.70
2018-09-10T23:28:48.288Z,8.90
2018-09-10T23:31:17.097Z,7.73
2018-09-10T23:33:46.032Z,8.80
2018-09-10T23:36:14.965Z,7.40
2018-09-10T23:38:43.928Z,8.97
2018-09-10T23:41:12.744Z,7.03
2018-09-10T23:43:41.741Z,5.70
2018-09-10T23:46:10.532Z,7.30
2018-09-10T23:48:39.527Z,6.97
2018-09-10T23:51:08.437Z,5.30
2018-09-10T23:53:37.361Z,4.93
2018-09-10T23:56:06.261Z,4.63
2018-09-10T23:58:35.217Z,5.27
